createdAt,value
2016-10-16T00:00:10.753Z,87
2016-10-16T00:00:31.335Z,87.4
2016-10-16T00:00:51.938Z,87.5
2016-10-16T00:01:12.512Z,86.8
2016-10-16T00:01:33.090Z,87
2016-10-16T00:01:53.665Z,87
2016-10-16T00:02:14.230Z,87.1
2016-10-16T00:02:34.818Z,87.1
2016-10-16T00:02:55.476Z,87.2
2016-10-16T00:03:16.065Z,87.4
2016-10-16T00:03:36.671Z,87.4
2016-10-16T00:03:57.253Z,86.9
2016-10-16T00:04:17.847Z,86.9
2016-10-16T00:04:38.442Z,87.1
2016-10-16T00:04:59.028Z,87
2016-10-16T00:05:19.607Z,87.1
2016-10-16T00:05:40.179Z,87.1
2016-10-16T00:06:00.768Z,87.1
2016-10-16T00:06:21.347Z,87.5
2016-10-16T00:06:41.947Z,87.1
2016-10-16T00:07:02.545Z,86.9
2016-10-16T00:07:23.131Z,86.9
2016-10-16T00:07:43.705Z,86.9
2016-10-16T00:08:04.323Z,87
2016-10-16T00:08:24.911Z,87
2016-10-16T00:08:45.495Z,87.3
2016-10-16T00:09:06.077Z,86.9
2016-10-16T00:09:26.636Z,87.2
2016-10-16T00:09:47.206Z,87.3
2016-10-16T00:10:07.813Z,87.1
2016-10-16T00:10:28.406Z,86.9
2016-10-16T00:10:48.985Z,87.7
2016-10-16T00:11:09.553Z,87
2016-10-16T00:11:30.149Z,87.3
2016-10-16T00:11:50.719Z,87.3
2016-10-16T00:12:11.292Z,87.3
2016-10-16T00:12:31.876Z,86.9
2016-10-16T00:12:52.453Z,87.1
2016-10-16T00:13:13.026Z,87.3
2016-10-16T00:13:33.615Z,87.3
2016-10-16T00:13:54.222Z,87.3
2016-10-16T00:14:14.802Z,86.9
2016-10-16T00:14:35.381Z,87.3
2016-10-16T00:14:55.966Z,87
2016-10-16T00:15:16.551Z,87.1
2016-10-16T00:15:37.134Z,86.9
2016-10-16T00:15:57.712Z,87.4
2016-10-16T00:16:18.289Z,87.5
2016-10-16T00:16:38.870Z,87.5
2016-10-16T00:16:59.447Z,87.5
2016-10-16T00:17:20.050Z,87.5
2016-10-16T00:17:40.642Z,87.6
2016-10-16T00:18:01.237Z,87.7
2016-10-16T00:18:21.804Z,87.5
2016-10-16T00:18:42.394Z,87.5
2016-10-16T00:19:02.973Z,87.6
2016-10-16T00:19:23.551Z,87.5
2016-10-16T00:19:44.139Z,87.7
2016-10-16T00:20:04.706Z,87.4
2016-10-16T00:20:25.291Z,86.9
2016-10-16T00:20:45.892Z,87.6
2016-10-16T00:21:06.476Z,87.7
2016-10-16T00:21:27.046Z,87.5
2016-10-16T00:21:47.625Z,87.6
2016-10-16T00:22:08.188Z,87.4
2016-10-16T00:22:28.793Z,87.4
2016-10-16T00:22:49.375Z,87.2
2016-10-16T00:23:09.980Z,87.2
2016-10-16T00:23:30.569Z,87.3
2016-10-16T00:23:51.134Z,87.2
2016-10-16T00:24:11.732Z,87.8
2016-10-16T00:24:32.312Z,87.7
2016-10-16T00:24:52.916Z,87.6
2016-10-16T00:25:13.482Z,87.8
2016-10-16T00:25:34.063Z,87.7
2016-10-16T00:25:54.647Z,87.7
2016-10-16T00:26:15.224Z,87.5
2016-10-16T00:26:35.808Z,87.5
2016-10-16T00:26:56.392Z,87.7
2016-10-16T00:27:16.976Z,87.5
2016-10-16T00:27:37.556Z,88.1
2016-10-16T00:27:58.129Z,87.4
2016-10-16T00:28:18.732Z,87.5
2016-10-16T00:28:39.313Z,87.8
2016-10-16T00:28:59.883Z,87.5
2016-10-16T00:29:20.453Z,87
2016-10-16T00:29:41.035Z,87.3
2016-10-16T00:30:01.608Z,87.3
2016-10-16T00:30:22.197Z,87.3
2016-10-16T00:30:42.794Z,87.2
2016-10-16T00:31:03.363Z,87.3
2016-10-16T00:31:23.936Z,87.3
2016-10-16T00:31:44.518Z,87.3
2016-10-16T00:32:05.117Z,87.4
2016-10-16T00:32:25.712Z,87
2016-10-16T00:32:46.291Z,87.7
2016-10-16T00:33:06.866Z,87.6
2016-10-16T00:33:27.476Z,87
2016-10-16T00:33:48.049Z,87.3
2016-10-16T00:34:08.626Z,87.3
2016-10-16T00:34:29.214Z,87.3
2016-10-16T00:34:49.791Z,87
2016-10-16T00:35:10.385Z,87.3
2016-10-16T00:35:30.966Z,87.5
2016-10-16T00:35:51.535Z,87
2016-10-16T00:36:12.132Z,87.1
2016-10-16T00:36:32.720Z,87.5
2016-10-16T00:36:53.304Z,87.6
2016-10-16T00:37:13.890Z,87.5
2016-10-16T00:37:34.476Z,87.5
2016-10-16T00:37:55.054Z,87.7
2016-10-16T00:38:15.644Z,87.6
2016-10-16T00:38:36.240Z,87.8
2016-10-16T00:38:56.851Z,87.8
2016-10-16T00:39:17.430Z,87.9
2016-10-16T00:39:38.011Z,87.7
2016-10-16T00:39:58.581Z,87.7
2016-10-16T00:40:19.166Z,87.5
2016-10-16T00:40:39.757Z,87.3
2016-10-16T00:41:00.326Z,87.5
2016-10-16T00:41:20.931Z,87.3
2016-10-16T00:41:41.500Z,87.1
2016-10-16T00:42:02.078Z,87.1
2016-10-16T00:42:22.645Z,87.2
2016-10-16T00:42:43.223Z,87.1
2016-10-16T00:43:03.812Z,87.3
2016-10-16T00:43:24.405Z,87.3
2016-10-16T00:43:44.983Z,87.3
2016-10-16T00:44:05.557Z,87.6
2016-10-16T00:44:26.189Z,87.7
2016-10-16T00:44:46.765Z,87.7
2016-10-16T00:45:07.347Z,88.2
2016-10-16T00:45:27.918Z,88.2
2016-10-16T00:45:48.486Z,88.3
2016-10-16T00:46:09.064Z,88.3
2016-10-16T00:46:29.644Z,88.3
2016-10-16T00:46:50.235Z,88.3
2016-10-16T00:47:10.821Z,88.1
2016-10-16T00:47:31.418Z,88
2016-10-16T00:47:52.010Z,88.2
2016-10-16T00:48:12.604Z,87.9
2016-10-16T00:48:33.219Z,87.9
2016-10-16T00:48:53.796Z,88.3
2016-10-16T00:49:14.369Z,88
2016-10-16T00:49:34.963Z,88.1
2016-10-16T00:49:55.541Z,88.1
2016-10-16T00:50:16.129Z,88.1
2016-10-16T00:50:36.705Z,88.3
2016-10-16T00:50:57.276Z,87.5
2016-10-16T00:51:17.856Z,87.4
2016-10-16T00:51:38.450Z,87.6
2016-10-16T00:51:59.038Z,87.6
2016-10-16T00:52:19.625Z,87.7
2016-10-16T00:52:40.198Z,87.7
2016-10-16T00:53:00.774Z,87.5
2016-10-16T00:53:21.352Z,87.9
2016-10-16T00:53:41.957Z,87.4
2016-10-16T00:54:02.538Z,87.7
2016-10-16T00:54:23.106Z,87.5
2016-10-16T00:54:43.691Z,87.8
2016-10-16T00:55:04.283Z,87.9
2016-10-16T00:55:24.867Z,87.8
2016-10-16T00:55:45.454Z,87.7
2016-10-16T00:56:06.050Z,87.9
2016-10-16T00:56:26.629Z,87.7
2016-10-16T00:56:47.194Z,87.9
2016-10-16T00:57:07.783Z,87.7
2016-10-16T00:57:28.382Z,87.5
2016-10-16T00:57:48.969Z,87.8
2016-10-16T00:58:09.547Z,87.8
2016-10-16T00:58:30.115Z,87.8
2016-10-16T00:58:50.714Z,87.7
2016-10-16T00:59:11.310Z,87.5
2016-10-16T00:59:31.915Z,87.5
2016-10-16T00:59:52.505Z,87.7
2016-10-16T01:00:13.092Z,88
2016-10-16T01:00:33.669Z,87.3
2016-10-16T01:00:54.266Z,87.5
2016-10-16T01:01:14.865Z,87.9
2016-10-16T01:01:35.448Z,87.8
2016-10-16T01:01:56.013Z,87.7
2016-10-16T01:02:16.589Z,87.7
2016-10-16T01:02:37.175Z,87.6
2016-10-16T01:02:57.759Z,87.6
2016-10-16T01:03:18.354Z,87.6
2016-10-16T01:03:38.933Z,87.5
2016-10-16T01:03:59.517Z,87.5
2016-10-16T01:04:20.100Z,87.5
2016-10-16T01:04:40.697Z,87.5
2016-10-16T01:05:01.287Z,87.5
2016-10-16T01:05:21.853Z,88.3
2016-10-16T01:05:42.430Z,88.3
2016-10-16T01:06:03.007Z,88
2016-10-16T01:06:23.602Z,88.2
2016-10-16T01:06:44.186Z,87.9
2016-10-16T01:07:04.763Z,88.3
2016-10-16T01:08:02.117Z,88.3
2016-10-16T01:08:22.699Z,88.3
2016-10-16T01:08:43.280Z,88.3
2016-10-16T01:09:03.940Z,87.9
2016-10-16T01:09:24.522Z,88.2
2016-10-16T01:09:45.114Z,88.3
2016-10-16T01:10:05.713Z,88.2
2016-10-16T01:10:26.309Z,88.3
2016-10-16T01:10:46.891Z,88.7
2016-10-16T01:11:07.460Z,88.2
2016-10-16T01:11:28.053Z,88.2
2016-10-16T01:11:48.632Z,88.3
2016-10-16T01:12:09.220Z,88.2
2016-10-16T01:12:29.816Z,88.2
2016-10-16T01:12:50.377Z,88.2
2016-10-16T01:13:10.975Z,88.3
2016-10-16T01:13:31.569Z,88.2
2016-10-16T01:13:52.151Z,88.1
2016-10-16T01:14:12.727Z,87.8
2016-10-16T01:14:33.314Z,88.1
2016-10-16T01:14:53.870Z,88.7
2016-10-16T01:15:14.468Z,88.7
2016-10-16T01:15:35.079Z,88.1
2016-10-16T01:15:55.658Z,88.3
2016-10-16T01:16:16.229Z,88.3
2016-10-16T01:16:36.813Z,88.2
2016-10-16T01:16:57.386Z,88.2
2016-10-16T01:17:17.966Z,88.3
2016-10-16T01:17:38.556Z,88.1
2016-10-16T01:17:59.120Z,88.2
2016-10-16T01:18:19.703Z,88.3
2016-10-16T01:18:40.299Z,88.1
2016-10-16T01:19:00.886Z,88.1
2016-10-16T01:19:21.478Z,88.1
2016-10-16T01:19:42.049Z,88.3
2016-10-16T01:20:02.635Z,88.2
2016-10-16T01:20:23.225Z,88.4
2016-10-16T01:20:43.828Z,88.1
2016-10-16T01:21:04.407Z,88.1
2016-10-16T01:21:24.996Z,88
2016-10-16T01:21:45.565Z,88
2016-10-16T01:22:06.141Z,88.2
2016-10-16T01:22:26.744Z,88.1
2016-10-16T01:22:47.336Z,88.1
2016-10-16T01:23:07.928Z,88.3
2016-10-16T01:23:28.503Z,88.4
2016-10-16T01:23:49.078Z,88.3
2016-10-16T01:24:09.657Z,88.3
2016-10-16T01:24:30.253Z,88.1
2016-10-16T01:24:50.831Z,88.1
2016-10-16T01:25:11.420Z,88.1
2016-10-16T01:25:32.015Z,88.3
2016-10-16T01:25:52.598Z,88.4
2016-10-16T01:26:13.199Z,88.1
2016-10-16T01:26:33.798Z,88.1
2016-10-16T01:26:54.442Z,88.1
2016-10-16T01:27:15.011Z,88.1
2016-10-16T01:27:35.591Z,88.1
2016-10-16T01:27:56.169Z,88.1
2016-10-16T01:28:16.771Z,88.3
2016-10-16T01:28:37.347Z,88.7
2016-10-16T01:28:57.920Z,88.5
2016-10-16T01:29:18.552Z,88.5
2016-10-16T01:29:39.149Z,88.5
2016-10-16T01:29:59.740Z,88.3
2016-10-16T01:30:20.324Z,88.5
2016-10-16T01:30:40.902Z,88.3
2016-10-16T01:31:01.472Z,88.5
2016-10-16T01:31:22.045Z,88.5
2016-10-16T01:31:42.634Z,88.6
2016-10-16T01:32:03.226Z,88.6
2016-10-16T01:32:23.802Z,88.6
2016-10-16T01:32:44.395Z,88.3
2016-10-16T01:33:04.982Z,88.5
2016-10-16T01:33:25.564Z,88.3
2016-10-16T01:33:46.189Z,88.3
2016-10-16T01:34:06.754Z,88.3
2016-10-16T01:34:27.324Z,88.6
2016-10-16T01:34:47.910Z,88.6
2016-10-16T01:35:08.491Z,88.4
2016-10-16T01:35:29.063Z,88.4
2016-10-16T01:35:49.644Z,88.4
2016-10-16T01:36:10.202Z,88.6
2016-10-16T01:36:30.793Z,88
2016-10-16T01:36:51.390Z,88.3
2016-10-16T01:37:11.979Z,88.1
2016-10-16T01:37:32.557Z,88.1
2016-10-16T01:37:53.178Z,88.2
2016-10-16T01:38:13.767Z,88.3
2016-10-16T01:38:34.345Z,88.1
2016-10-16T01:38:54.961Z,88
2016-10-16T01:39:15.568Z,88
2016-10-16T01:39:36.144Z,88.2
2016-10-16T01:39:56.717Z,87.8
2016-10-16T01:40:17.292Z,88.3
2016-10-16T01:40:37.875Z,88.5
2016-10-16T01:40:58.483Z,88.3
2016-10-16T01:41:19.043Z,88.5
2016-10-16T01:41:39.617Z,88.5
2016-10-16T01:42:00.201Z,88.3
2016-10-16T01:42:20.781Z,88.6
2016-10-16T01:42:41.361Z,88.5
2016-10-16T01:43:01.936Z,88.3
2016-10-16T01:43:22.513Z,88.3
2016-10-16T01:43:43.108Z,88.6
2016-10-16T01:44:03.694Z,88.4
2016-10-16T01:44:24.290Z,88.4
2016-10-16T01:44:44.898Z,88.5
2016-10-16T01:45:05.477Z,88.5
2016-10-16T01:45:26.072Z,88.6
2016-10-16T01:45:46.652Z,88.6
2016-10-16T01:46:07.235Z,88.5
2016-10-16T01:46:27.835Z,88.5
2016-10-16T01:46:48.410Z,88.7
2016-10-16T01:47:08.993Z,88.7
2016-10-16T01:47:29.573Z,88.6
2016-10-16T01:47:50.153Z,88.4
2016-10-16T01:48:10.740Z,88.6
2016-10-16T01:48:31.309Z,88.5
2016-10-16T01:48:51.889Z,88.5
2016-10-16T01:49:12.504Z,88.7
2016-10-16T01:49:33.083Z,88.5
2016-10-16T01:49:53.668Z,88.5
2016-10-16T01:50:14.240Z,88.6
2016-10-16T01:50:34.811Z,88.6
2016-10-16T01:50:55.392Z,88.6
2016-10-16T01:51:15.962Z,88.6
2016-10-16T01:51:36.536Z,88.4
2016-10-16T01:51:57.103Z,88.5
2016-10-16T01:52:17.690Z,88.6
2016-10-16T01:52:38.280Z,88.4
2016-10-16T01:52:58.864Z,88.5
2016-10-16T01:53:19.440Z,88.6
2016-10-16T01:53:40.025Z,88.6
2016-10-16T01:54:00.598Z,88.5
2016-10-16T01:54:21.173Z,88.6
2016-10-16T01:54:41.754Z,88.4
2016-10-16T01:55:02.322Z,88.6
2016-10-16T01:55:22.897Z,89.3
2016-10-16T01:55:43.477Z,89.1
2016-10-16T01:56:04.041Z,89
2016-10-16T01:56:24.627Z,89.1
2016-10-16T01:56:45.197Z,89.1
2016-10-16T01:57:05.793Z,89.4
2016-10-16T01:57:26.364Z,89
2016-10-16T01:57:46.938Z,88.5
2016-10-16T01:58:07.532Z,88.5
2016-10-16T01:58:28.112Z,88.4
2016-10-16T01:58:48.713Z,88.4
2016-10-16T01:59:09.289Z,88.6
2016-10-16T01:59:29.845Z,88.6
2016-10-16T01:59:50.433Z,88.5
2016-10-16T02:00:10.997Z,88.3
2016-10-16T02:00:31.589Z,88.3
2016-10-16T02:00:52.187Z,88.5
2016-10-16T02:01:12.749Z,88.3
2016-10-16T02:01:33.335Z,88.6
2016-10-16T02:01:53.925Z,88.3
2016-10-16T02:02:14.511Z,88.3
2016-10-16T02:02:35.116Z,88.7
2016-10-16T02:02:55.685Z,88.5
2016-10-16T02:03:16.266Z,88.5
2016-10-16T02:03:36.845Z,88.4
2016-10-16T02:03:57.415Z,88.3
2016-10-16T02:04:17.989Z,88.4
2016-10-16T02:04:38.583Z,88.4
2016-10-16T02:04:59.198Z,88.5
2016-10-16T02:05:19.800Z,88.3
2016-10-16T02:05:40.377Z,88.5
2016-10-16T02:06:00.983Z,88.3
2016-10-16T02:06:22.523Z,88.5
2016-10-16T02:06:43.114Z,88.3
2016-10-16T02:07:03.700Z,88.5
2016-10-16T02:07:24.282Z,88.2
2016-10-16T02:07:44.875Z,88.4
2016-10-16T02:08:05.509Z,88.5
2016-10-16T02:08:26.095Z,88.5
2016-10-16T02:08:46.671Z,88.3
2016-10-16T02:09:07.260Z,88.3
2016-10-16T02:09:27.850Z,88.3
2016-10-16T02:09:48.430Z,88.3
2016-10-16T02:10:09.005Z,88.3
2016-10-16T02:10:29.576Z,88.5
2016-10-16T02:10:50.146Z,88.5
2016-10-16T02:11:10.739Z,88.5
2016-10-16T02:11:31.331Z,88.5
2016-10-16T02:11:51.920Z,88.5
2016-10-16T02:12:12.491Z,88.3
2016-10-16T02:12:33.076Z,88.5
2016-10-16T02:12:53.655Z,88.5
2016-10-16T02:13:14.254Z,88.3
2016-10-16T02:13:34.838Z,88.3
2016-10-16T02:13:55.413Z,88.2
2016-10-16T02:14:16.007Z,88.6
2016-10-16T02:14:36.586Z,88.1
2016-10-16T02:14:57.188Z,88.8
2016-10-16T02:15:17.785Z,88.5
2016-10-16T02:15:38.358Z,88.2
2016-10-16T02:15:58.932Z,88.2
2016-10-16T02:16:19.552Z,88.2
2016-10-16T02:16:40.149Z,88.2
2016-10-16T02:17:00.734Z,88.1
2016-10-16T02:17:21.321Z,88.1
2016-10-16T02:17:41.877Z,88.1
2016-10-16T02:18:02.454Z,87.9
2016-10-16T02:18:23.036Z,88.1
2016-10-16T02:18:43.723Z,88.2
2016-10-16T02:19:04.322Z,88.1
2016-10-16T02:19:24.896Z,88.1
2016-10-16T02:19:45.475Z,88.1
2016-10-16T02:20:06.065Z,88.1
2016-10-16T02:20:26.665Z,88.1
2016-10-16T02:20:47.267Z,88.2
2016-10-16T02:21:07.836Z,88.3
2016-10-16T02:21:28.408Z,87.8
2016-10-16T02:21:49.013Z,88.2
2016-10-16T02:22:09.597Z,88.3
2016-10-16T02:22:30.178Z,88.2
2016-10-16T02:22:50.763Z,88.3
2016-10-16T02:23:11.337Z,88.3
2016-10-16T02:23:31.930Z,88.1
2016-10-16T02:23:52.498Z,88.2
2016-10-16T02:24:13.080Z,88.1
2016-10-16T02:24:33.655Z,88.1
2016-10-16T02:24:54.234Z,88.1
2016-10-16T02:25:14.821Z,88.2
2016-10-16T02:25:35.661Z,88.1
2016-10-16T02:25:56.243Z,88.3
2016-10-16T02:26:16.846Z,88
2016-10-16T02:26:37.443Z,87.9
2016-10-16T02:26:58.034Z,88.2
2016-10-16T02:27:18.603Z,88.1
2016-10-16T02:27:39.209Z,88.2
2016-10-16T02:27:59.791Z,88.3
2016-10-16T02:28:20.370Z,88.2
2016-10-16T02:28:40.948Z,88.3
2016-10-16T02:29:01.540Z,88.3
2016-10-16T02:29:22.125Z,88.1
2016-10-16T02:29:42.711Z,88.1
2016-10-16T02:30:03.271Z,88.1
2016-10-16T02:30:23.849Z,88.2
2016-10-16T02:30:44.441Z,88.3
2016-10-16T02:31:05.015Z,88.6
2016-10-16T02:31:25.611Z,88.3
2016-10-16T02:31:46.165Z,88.5
2016-10-16T02:32:06.772Z,88.5
2016-10-16T02:32:27.369Z,88.4
2016-10-16T02:32:47.953Z,88.5
2016-10-16T02:33:08.533Z,88.3
2016-10-16T02:33:29.100Z,88.5
2016-10-16T02:33:49.734Z,88.5
2016-10-16T02:34:10.317Z,88.5
2016-10-16T02:34:30.901Z,88.5
2016-10-16T02:34:51.501Z,88.5
2016-10-16T02:35:12.068Z,88.5
2016-10-16T02:35:32.661Z,88.5
2016-10-16T02:35:53.249Z,88.1
2016-10-16T02:36:13.835Z,88.5
2016-10-16T02:36:34.413Z,88.6
2016-10-16T02:36:55.002Z,88.3
2016-10-16T02:37:15.578Z,88.3
2016-10-16T02:37:36.179Z,88.8
2016-10-16T02:37:56.778Z,88.6
2016-10-16T02:38:17.410Z,88.6
2016-10-16T02:38:37.973Z,88.2
2016-10-16T02:38:58.548Z,88.1
2016-10-16T02:39:19.122Z,87.8
2016-10-16T02:39:39.711Z,88.1
2016-10-16T02:40:00.287Z,88.3
2016-10-16T02:40:20.847Z,87.8
2016-10-16T02:40:41.438Z,88.3
2016-10-16T02:41:02.007Z,88.2
2016-10-16T02:41:22.621Z,88.1
2016-10-16T02:41:43.207Z,88.3
2016-10-16T02:42:03.797Z,88.3
2016-10-16T02:42:24.376Z,88.2
2016-10-16T02:42:44.962Z,88.5
2016-10-16T02:43:05.562Z,88.3
2016-10-16T02:43:26.142Z,88.4
2016-10-16T02:43:46.715Z,88.6
2016-10-16T02:44:07.304Z,88.4
2016-10-16T02:44:27.892Z,88.3
2016-10-16T02:44:48.494Z,88.5
2016-10-16T02:45:09.081Z,88.5
2016-10-16T02:45:29.663Z,88.4
2016-10-16T02:45:50.232Z,88.4
2016-10-16T02:46:10.796Z,88.7
2016-10-16T02:46:31.368Z,88.7
2016-10-16T02:46:51.961Z,88.7
2016-10-16T02:47:12.546Z,88.8
2016-10-16T02:47:33.111Z,88.4
2016-10-16T02:47:53.692Z,89
2016-10-16T02:48:14.283Z,88.7
2016-10-16T02:48:34.854Z,89.2
2016-10-16T02:48:55.450Z,88.7
2016-10-16T02:49:16.032Z,89.3
2016-10-16T02:49:36.625Z,89.1
2016-10-16T02:49:57.234Z,89.1
2016-10-16T02:50:17.822Z,89.2
2016-10-16T02:50:38.407Z,89.2
2016-10-16T02:50:59.010Z,89
2016-10-16T02:51:19.594Z,89.1
2016-10-16T02:51:40.175Z,88.8
2016-10-16T02:52:00.752Z,88.9
2016-10-16T02:52:21.331Z,89.1
2016-10-16T02:52:41.890Z,89.1
2016-10-16T02:53:02.451Z,89.1
2016-10-16T02:53:23.042Z,88.7
2016-10-16T02:53:43.651Z,88.5
2016-10-16T02:54:04.232Z,88.5
2016-10-16T02:54:24.817Z,88.5
2016-10-16T02:54:45.386Z,88.7
2016-10-16T02:55:05.965Z,88.7
2016-10-16T02:55:26.546Z,89.1
2016-10-16T02:55:47.132Z,88.7
2016-10-16T02:56:07.708Z,88.7
2016-10-16T02:56:28.275Z,88.5
2016-10-16T02:56:48.850Z,88.4
2016-10-16T02:57:09.438Z,88.9
2016-10-16T02:57:30.011Z,88.8
2016-10-16T02:57:50.602Z,89.1
2016-10-16T02:58:11.177Z,88.9
2016-10-16T02:58:31.758Z,89.2
2016-10-16T02:58:52.348Z,88.9
2016-10-16T02:59:12.932Z,89
2016-10-16T02:59:33.516Z,89.1
2016-10-16T02:59:54.125Z,89.2
2016-10-16T03:00:14.682Z,89
2016-10-16T03:00:35.251Z,89.1
2016-10-16T03:00:55.841Z,89.2
2016-10-16T03:01:16.464Z,89.1
2016-10-16T03:01:37.051Z,88.7
2016-10-16T03:01:57.630Z,89.1
2016-10-16T03:02:18.199Z,88.5
2016-10-16T03:02:38.795Z,89.1
2016-10-16T03:02:59.395Z,88.6
2016-10-16T03:03:19.975Z,88.4
2016-10-16T03:03:40.645Z,88.4
2016-10-16T03:04:01.230Z,88.4
2016-10-16T03:04:21.833Z,88.5
2016-10-16T03:04:42.435Z,88.6
2016-10-16T03:05:03.023Z,88.6
2016-10-16T03:05:23.620Z,88.5
2016-10-16T03:05:44.195Z,88.6
2016-10-16T03:06:04.772Z,88.6
2016-10-16T03:06:25.363Z,88.5
2016-10-16T03:06:45.935Z,88.3
2016-10-16T03:07:06.528Z,88.7
2016-10-16T03:07:27.107Z,88.3
2016-10-16T03:07:47.683Z,88.4
2016-10-16T03:08:08.278Z,88.5
2016-10-16T03:08:28.891Z,88.5
2016-10-16T03:08:49.472Z,88.5
2016-10-16T03:09:10.040Z,88.5
2016-10-16T03:09:30.610Z,88.5
2016-10-16T03:09:51.198Z,88.5
2016-10-16T03:10:11.780Z,88.6
2016-10-16T03:10:32.365Z,88.3
2016-10-16T03:10:52.952Z,88.5
2016-10-16T03:11:13.519Z,88.1
2016-10-16T03:11:34.111Z,88.2
2016-10-16T03:11:54.699Z,88.2
2016-10-16T03:12:15.297Z,88.7
2016-10-16T03:12:35.894Z,88.2
2016-10-16T03:12:56.481Z,88
2016-10-16T03:13:17.051Z,88.2
2016-10-16T03:13:37.633Z,88.5
2016-10-16T03:13:58.232Z,88.1
2016-10-16T03:14:18.813Z,88.3
2016-10-16T03:14:39.446Z,88.1
2016-10-16T03:15:00.011Z,88.2
2016-10-16T03:15:20.601Z,88.3
2016-10-16T03:15:41.178Z,88.3
2016-10-16T03:16:01.754Z,88.3
2016-10-16T03:16:22.334Z,88.3
2016-10-16T03:16:42.915Z,88.1
2016-10-16T03:17:03.477Z,87.8
2016-10-16T03:17:24.060Z,88.1
2016-10-16T03:17:44.631Z,88
2016-10-16T03:18:05.226Z,88.3
2016-10-16T03:18:25.806Z,88.3
2016-10-16T03:18:46.377Z,88.3
2016-10-16T03:19:06.954Z,88.2
2016-10-16T03:19:27.532Z,88.2
2016-10-16T03:19:48.118Z,88.3
2016-10-16T03:20:08.703Z,88.2
2016-10-16T03:20:29.299Z,88
2016-10-16T03:20:49.899Z,87.9
2016-10-16T03:21:10.471Z,88.2
2016-10-16T03:21:31.067Z,88.2
2016-10-16T03:21:51.646Z,88
2016-10-16T03:22:12.234Z,88.2
2016-10-16T03:22:32.817Z,88.1
2016-10-16T03:22:53.396Z,87.9
2016-10-16T03:23:14.012Z,88.1
2016-10-16T03:23:34.607Z,88
2016-10-16T03:23:55.180Z,88
2016-10-16T03:24:15.770Z,88
2016-10-16T03:24:36.357Z,88
2016-10-16T03:24:56.937Z,88.1
2016-10-16T03:25:17.529Z,88
2016-10-16T03:25:38.116Z,88
2016-10-16T03:25:58.695Z,88.1
2016-10-16T03:26:19.278Z,88
2016-10-16T03:26:39.855Z,88.3
2016-10-16T03:27:00.468Z,88.4
2016-10-16T03:27:21.051Z,88.5
2016-10-16T03:27:41.622Z,88.6
2016-10-16T03:28:02.199Z,88.5
2016-10-16T03:28:22.797Z,88.7
2016-10-16T03:28:43.387Z,88.6
2016-10-16T03:29:03.959Z,88.6
2016-10-16T03:29:24.545Z,88.7
2016-10-16T03:29:45.141Z,88.6
2016-10-16T03:30:05.712Z,88.4
2016-10-16T03:30:26.314Z,88.5
2016-10-16T03:30:46.907Z,88.4
2016-10-16T03:31:07.510Z,89.1
2016-10-16T03:31:28.097Z,89.1
2016-10-16T03:31:48.662Z,89.1
2016-10-16T03:32:09.246Z,89.1
2016-10-16T03:32:29.851Z,89
2016-10-16T03:32:50.465Z,89.1
2016-10-16T03:33:11.037Z,89.1
2016-10-16T03:33:31.615Z,89.1
2016-10-16T03:33:52.191Z,89.1
2016-10-16T03:34:12.779Z,89.2
2016-10-16T03:34:33.369Z,89.1
2016-10-16T03:34:53.940Z,88.8
2016-10-16T03:35:14.539Z,89.2
2016-10-16T03:35:35.111Z,89.2
2016-10-16T03:35:55.695Z,88.9
2016-10-16T03:36:16.270Z,89.1
2016-10-16T03:36:36.820Z,88.9
2016-10-16T03:36:57.413Z,89.1
2016-10-16T03:37:17.994Z,88.9
2016-10-16T03:37:38.597Z,88.8
2016-10-16T03:37:59.182Z,88.9
2016-10-16T03:38:19.771Z,88.8
2016-10-16T03:38:40.358Z,89.2
2016-10-16T03:39:00.966Z,89
2016-10-16T03:39:21.562Z,89.2
2016-10-16T03:39:42.138Z,88.9
2016-10-16T03:40:02.736Z,88.9
2016-10-16T03:40:23.312Z,88.8
2016-10-16T03:40:43.898Z,88.7
2016-10-16T03:41:04.491Z,88.9
2016-10-16T03:41:25.079Z,88.8
2016-10-16T03:41:45.654Z,89.2
2016-10-16T03:42:06.232Z,88.7
2016-10-16T03:42:26.831Z,88.7
2016-10-16T03:42:47.402Z,89
2016-10-16T03:43:07.978Z,89.2
2016-10-16T03:43:28.568Z,89
2016-10-16T03:43:49.171Z,88.9
2016-10-16T03:44:09.764Z,88.9
2016-10-16T03:44:30.368Z,89.2
2016-10-16T03:44:50.936Z,88.9
2016-10-16T03:45:11.553Z,88.8
2016-10-16T03:45:32.128Z,88.8
2016-10-16T03:45:52.722Z,88.8
2016-10-16T03:46:13.306Z,88.8
2016-10-16T03:46:33.914Z,89.1
2016-10-16T03:46:54.505Z,88.8
2016-10-16T03:47:15.080Z,89.2
2016-10-16T03:47:35.671Z,89.2
2016-10-16T03:47:56.255Z,89
2016-10-16T03:48:16.839Z,89.1
2016-10-16T03:48:37.422Z,89
2016-10-16T03:48:58.004Z,89.1
2016-10-16T03:49:18.590Z,89.3
2016-10-16T03:49:39.172Z,88.7
2016-10-16T03:50:00.226Z,89
2016-10-16T03:50:20.810Z,89.3
2016-10-16T03:50:41.379Z,88.5
2016-10-16T03:51:01.976Z,88.4
2016-10-16T03:51:22.559Z,88.5
2016-10-16T03:51:43.133Z,88.6
2016-10-16T03:52:03.713Z,88.6
2016-10-16T03:52:24.279Z,88.6
2016-10-16T03:52:44.863Z,88.5
2016-10-16T03:53:05.448Z,88.6
2016-10-16T03:53:26.035Z,88.6
2016-10-16T03:53:46.611Z,88.5
2016-10-16T03:54:07.183Z,88.5
2016-10-16T03:54:27.754Z,88.5
2016-10-16T03:54:48.328Z,88.6
2016-10-16T03:55:08.918Z,88.4
2016-10-16T03:55:29.511Z,88.4
2016-10-16T03:55:50.093Z,88.4
2016-10-16T03:56:10.665Z,88.4
2016-10-16T03:56:31.240Z,88.6
2016-10-16T03:56:51.828Z,88.6
2016-10-16T03:57:12.409Z,88.6
2016-10-16T03:57:32.996Z,88.6
2016-10-16T03:57:53.583Z,88.6
2016-10-16T03:58:14.175Z,88.3
2016-10-16T03:58:34.774Z,88.5
2016-10-16T03:58:55.359Z,88.6
2016-10-16T03:59:15.960Z,88.3
2016-10-16T03:59:36.533Z,88.5
2016-10-16T03:59:57.113Z,88.4
2016-10-16T04:00:17.704Z,88.3
2016-10-16T04:00:38.312Z,88.3
2016-10-16T04:00:58.899Z,88.6
2016-10-16T04:01:19.477Z,88.5
2016-10-16T04:01:40.038Z,88.3
2016-10-16T04:02:00.617Z,88.3
2016-10-16T04:02:21.202Z,88.2
2016-10-16T04:02:41.804Z,88.3
2016-10-16T04:03:02.370Z,88.5
2016-10-16T04:03:22.947Z,88.3
2016-10-16T04:03:43.530Z,88.4
2016-10-16T04:04:04.109Z,88.4
2016-10-16T04:04:24.705Z,88.5
2016-10-16T04:04:45.297Z,88.3
2016-10-16T04:05:05.876Z,88.3
2016-10-16T04:05:26.457Z,88.3
2016-10-16T04:05:47.056Z,88.3
2016-10-16T04:06:07.659Z,88.3
2016-10-16T04:06:28.250Z,88.3
2016-10-16T04:06:48.876Z,88.3
2016-10-16T04:07:09.445Z,88.6
2016-10-16T04:07:30.027Z,88.5
2016-10-16T04:07:50.619Z,88.3
2016-10-16T04:08:11.201Z,88.3
2016-10-16T04:08:31.785Z,88.3
2016-10-16T04:08:52.378Z,88.3
2016-10-16T04:09:12.951Z,88.3
2016-10-16T04:09:33.553Z,88.5
2016-10-16T04:09:54.149Z,88.2
2016-10-16T04:10:14.736Z,88.6
2016-10-16T04:10:35.301Z,88.7
2016-10-16T04:10:55.893Z,88.2
2016-10-16T04:11:16.467Z,88.2
2016-10-16T04:11:37.052Z,88.1
2016-10-16T04:11:57.625Z,88.3
2016-10-16T04:12:18.201Z,88.2
2016-10-16T04:12:38.782Z,88.1
2016-10-16T04:12:59.368Z,88.3
2016-10-16T04:13:19.962Z,87.9
2016-10-16T04:13:40.560Z,88.1
2016-10-16T04:14:01.134Z,88.3
2016-10-16T04:14:21.704Z,88.3
2016-10-16T04:14:42.317Z,88.1
2016-10-16T04:15:02.903Z,87.9
2016-10-16T04:15:23.481Z,88.1
2016-10-16T04:15:44.057Z,88.3
2016-10-16T04:16:04.626Z,88.1
2016-10-16T04:16:25.223Z,88.2
2016-10-16T04:16:45.812Z,88.2
2016-10-16T04:17:06.395Z,88.3
2016-10-16T04:17:26.992Z,88.3
2016-10-16T04:17:47.567Z,88.1
2016-10-16T04:18:08.156Z,87.8
2016-10-16T04:18:28.754Z,88.2
2016-10-16T04:18:49.447Z,88.3
2016-10-16T04:19:10.027Z,88
2016-10-16T04:19:30.597Z,88.3
2016-10-16T04:19:51.200Z,87.8
2016-10-16T04:20:11.772Z,88.2
2016-10-16T04:20:32.377Z,88.3
2016-10-16T04:20:52.964Z,88.2
2016-10-16T04:21:13.533Z,88.3
2016-10-16T04:21:34.109Z,88.3
2016-10-16T04:21:54.687Z,88.5
2016-10-16T04:22:15.275Z,88.3
2016-10-16T04:22:35.879Z,88.1
2016-10-16T04:22:56.473Z,88.2
2016-10-16T04:23:17.055Z,88.3
2016-10-16T04:23:37.638Z,88.2
2016-10-16T04:23:58.227Z,88.2
2016-10-16T04:24:18.797Z,88.2
2016-10-16T04:24:39.363Z,88.2
2016-10-16T04:24:59.938Z,88.2
2016-10-16T04:25:20.525Z,88
2016-10-16T04:25:41.112Z,88.2
2016-10-16T04:26:01.691Z,88.7
2016-10-16T04:26:22.278Z,88.5
2016-10-16T04:26:42.837Z,88.3
2016-10-16T04:27:03.448Z,88.4
2016-10-16T04:27:24.028Z,88.5
2016-10-16T04:27:44.645Z,88.3
2016-10-16T04:28:05.222Z,88.5
2016-10-16T04:28:25.802Z,88.5
2016-10-16T04:28:46.384Z,88.5
2016-10-16T04:29:06.965Z,88.6
2016-10-16T04:29:28.801Z,88.4
2016-10-16T04:29:54.045Z,88.3
2016-10-16T04:30:14.606Z,88.8
2016-10-16T04:30:35.187Z,88.5
2016-10-16T04:30:55.764Z,88.6
2016-10-16T04:31:16.383Z,88.6
2016-10-16T04:31:36.993Z,88.6
2016-10-16T04:31:57.598Z,88.6
2016-10-16T04:32:18.175Z,88.6
2016-10-16T04:32:38.755Z,88.5
2016-10-16T04:32:59.353Z,89.2
2016-10-16T04:33:19.929Z,88.7
2016-10-16T04:33:40.523Z,89.3
2016-10-16T04:34:01.104Z,89.1
2016-10-16T04:34:21.683Z,89
2016-10-16T04:34:42.314Z,88.9
2016-10-16T04:35:02.888Z,88.9
2016-10-16T04:35:23.467Z,89.1
2016-10-16T04:35:44.041Z,89.1